Toledo, Argentina
Current Conditions -  °F | °C
As of 7:00 AM on Tuesday 21 Oct 2014 (Local Time) from SACO Reporting Station
Clear Clear  
Wind Chill: 16°   Ceiling: Unl
Heat Index: 16°   Visibility: 6mi
Dew Point: 12°   Wind: 10mph
Humidity: 77%   Direction: 360°N
Pressure: 30.12"   Gusts: NA
Location:  31.57°S, 64.02°W
Report Text: SACO 211000Z 36009KT CAVOK 16/12 Q1020
Loading
Personal Weather Stations






























Interactive Weather Map
Tropical Storm Tracking
New forecast layout! Learn more

10-Day Weather Forecast

Advertisements
Track Severe Weather on mobile